Time;durP1;ratioP1;P1;durP2;ratioP2;P2;SDS_P1;SDS_P2;PMS_P1;PMS_P2;Temp;Humidity;BMP_temperature;BMP_pressure;BME280_temperature;BME280_humidity;BME280_pressure;Samples;Min_cycle;Max_cycle;Signal;HPM_P1;HPM_P2
2022/02/13 00:02:03;;;;;;;;;;;;;;;;;;5013442;28;20378;-79
2022/02/13 00:04:28;;;;;;;;;;;;;;;;;;5014478;28;19928;-79
2022/02/13 00:06:53;;;;;;;;;;;;;;;;;;5013333;28;19964;-79
2022/02/13 00:09:19;;;;;;;;;;;;;;;;;;5014240;28;19922;-78
2022/02/13 00:11:44;;;;;;;;;;;;;;;;;;5014293;28;19925;-79
2022/02/13 00:14:09;;;;;;;;;;;;;;;;;;5014554;28;19925;-79
2022/02/13 00:16:36;;;;;;;;;;;;;;;;;;5013768;28;19929;-77
2022/02/13 00:19:01;;;;;;;;;;;;;;;;;;5014260;28;20021;-77
2022/02/13 00:21:26;;;;;;;;;;;;;;;;;;5013785;28;20047;-77
2022/02/13 00:23:52;;;;;;;;;;;;;;;;;;5013062;28;19960;-77
2022/02/13 00:26:17;;;;;;;;;;;;;;;;;;5014141;28;19926;-77
2022/02/13 00:28:42;;;;;;;;;;;;;;;;;;5013269;28;19944;-77
2022/02/13 00:31:07;;;;;;;;;;;;;;;;;;5013822;28;20289;-77
2022/02/13 00:33:34;;;;;;;;;;;;;;;;;;5013401;28;19921;-76
2022/02/13 00:36:00;;;;;;;;;;;;;;;;;;5013900;28;19918;-77
2022/02/13 00:38:25;;;;;;;;;;;;;;;;;;5016581;28;20349;-77
2022/02/13 00:40:50;;;;;;;;;;;;;;;;;;5013576;28;19921;-77
2022/02/13 00:43:16;;;;;;;;;;;;;;;;;;5013429;28;19925;-77
2022/02/13 00:45:41;;;;;;;;;;;;;;;;;;5013786;28;20012;-79
2022/02/13 00:48:10;;;;;;;;;;;;;;;;;;5012982;28;19925;-79
2022/02/13 00:50:35;;;;;;;;;;;;;;;;;;5013672;28;20001;-79
2022/02/13 00:53:01;;;;;;;;;;;;;;;;;;5011521;28;20015;-79
2022/02/13 00:55:26;;;;;;;;;;;;;;;;;;5013693;28;20350;-79
2022/02/13 00:57:51;;;;;;;;;;;;;;;;;;5013164;28;19918;-79
2022/02/13 01:00:17;;;;;;;;;;;;;;;;;;5013544;28;19925;-79
2022/02/13 01:02:42;;;;;;;;;;;;;;;;;;5013316;28;19928;-79
2022/02/13 01:05:07;;;;;;;;;;;;;;;;;;5013458;28;19917;-80
2022/02/13 01:07:33;;;;;;;;;;;;;;;;;;5012668;28;20297;-79
2022/02/13 01:09:58;;;;;;;;;;;;;;;;;;5013576;28;19918;-80
2022/02/13 01:12:23;;;;;;;;;;;;;;;;;;5028377;28;19918;-76
2022/02/13 01:14:48;;;;;;;;;;;;;;;;;;5013134;28;19928;-76
2022/02/13 01:17:14;;;;;;;;;;;;;;;;;;5013101;28;19918;-76
2022/02/13 01:19:39;;;;;;;;;;;;;;;;;;5013343;28;19917;-76
2022/02/13 01:22:07;;;;;;;;;;;;;;;;;;5013224;28;19960;-76
2022/02/13 01:24:33;;;;;;;;;;;;;;;;;;5011912;28;19921;-76
2022/02/13 01:26:58;;;;;;;;;;;;;;;;;;5012584;28;20377;-76
2022/02/13 01:29:23;;;;;;;;;;;;;;;;;;5012659;28;19922;-76
2022/02/13 01:31:49;;;;;;;;;;;;;;;;;;5012127;28;19926;-78
2022/02/13 01:34:18;;;;;;;;;;;;;;;;;;5013206;28;19917;-78
2022/02/13 01:36:43;;;;;;;;;;;;;;;;;;5013097;28;19921;-78
2022/02/13 01:39:11;;;;;;;;;;;;;;;;;;5011907;28;20328;-78
2022/02/13 01:41:36;;;;;;;;;;;;;;;;;;5012904;28;20305;-78
2022/02/13 01:44:01;;;;;;;;;;;;;;;;;;5011699;28;19925;-76
2022/02/13 01:46:27;;;;;;;;;;;;;;;;;;5013486;28;19967;-75
2022/02/13 01:48:52;;;;;;;;;;;;;;;;;;5013007;28;19972;-76
2022/02/13 01:51:17;;;;;;;;;;;;;;;;;;5013099;28;20374;-76
2022/02/13 01:53:43;;;;;;;;;;;;;;;;;;5012866;28;20005;-76
2022/02/13 01:56:08;;;;;;;;;;;;;;;;;;5012854;28;20390;-76
2022/02/13 01:58:33;;;;;;;;;;;;;;;;;;5012956;28;19929;-76
2022/02/13 02:00:58;;;;;;;;;;;;;;;;;;5013008;28;19928;-78
2022/02/13 02:03:24;;;;;;;;;;;;;;;;;;5014814;28;20332;-78
2022/02/13 02:05:49;;;;;;;;;;;;;;;;;;5016317;28;19922;-78
2022/02/13 02:08:14;;;;;;;;;;;;;;;;;;5014975;28;20000;-78
2022/02/13 02:10:40;;;;;;;;;;;;;;;;;;5016534;28;19918;-78
2022/02/13 02:13:05;;;;;;;;;;;;;;;;;;5015128;28;19932;-76
2022/02/13 02:15:31;;;;;;;;;;;;;;;;;;5014959;28;20282;-76
2022/02/13 02:17:56;;;;;;;;;;;;;;;;;;5015934;28;19956;-76
2022/02/13 02:20:21;;;;;;;;;;;;;;;;;;5016193;28;19922;-76
2022/02/13 02:22:47;;;;;;;;;;;;;;;;;;5015995;28;19925;-76
2022/02/13 02:25:13;;;;;;;;;;;;;;;;;;5012519;28;19913;-75
2022/02/13 02:27:38;;;;;;;;;;;;;;;;;;5015436;28;19921;-75
2022/02/13 02:30:03;;;;;;;;;;;;;;;;;;5016371;28;19921;-75
2022/02/13 02:32:29;;;;;;;;;;;;;;;;;;5015607;28;19918;-75
2022/02/13 02:34:54;;;;;;;;;;;;;;;;;;5016260;28;19964;-75
2022/02/13 02:37:19;;;;;;;;;;;;;;;;;;5019442;28;19922;-76
2022/02/13 02:39:44;;;;;;;;;;;;;;;;;;5018118;28;20293;-76
2022/02/13 02:42:13;;;;;;;;;;;;;;;;;;5015102;28;20341;-76
2022/02/13 02:44:38;;;;;;;;;;;;;;;;;;5015372;28;19975;-76
2022/02/13 02:47:03;;;;;;;;;;;;;;;;;;5015225;28;19917;-76
2022/02/13 02:49:29;;;;;;;;;;;;;;;;;;5015923;28;19921;-76
2022/02/13 02:51:54;;;;;;;;;;;;;;;;;;5015734;28;20408;-76
2022/02/13 02:54:19;;;;;;;;;;;;;;;;;;5014548;28;19928;-76
2022/02/13 02:56:44;;;;;;;;;;;;;;;;;;5014741;28;20024;-75
2022/02/13 02:59:10;;;;;;;;;;;;;;;;;;5015421;28;19928;-75
2022/02/13 03:01:35;;;;;;;;;;;;;;;;;;5014523;28;19926;-76
2022/02/13 03:04:00;;;;;;;;;;;;;;;;;;5015346;28;19921;-76
2022/02/13 03:06:25;;;;;;;;;;;;;;;;;;5015355;28;19929;-75
2022/02/13 03:08:51;;;;;;;;;;;;;;;;;;5015254;28;20386;-75
2022/02/13 03:11:16;;;;;;;;;;;;;;;;;;5014868;28;19921;-75
2022/02/13 03:13:41;;;;;;;;;;;;;;;;;;5013686;28;19968;-76
2022/02/13 03:16:07;;;;;;;;;;;;;;;;;;5014692;28;20015;-75
2022/02/13 03:18:32;;;;;;;;;;;;;;;;;;5013850;28;19926;-76
2022/02/13 03:21:00;;;;;;;;;;;;;;;;;;5014855;28;19921;-76
2022/02/13 03:23:26;;;;;;;;;;;;;;;;;;5013848;28;19925;-75
2022/02/13 03:25:51;;;;;;;;;;;;;;;;;;5015339;28;20369;-75
2022/02/13 03:28:16;;;;;;;;;;;;;;;;;;5014495;28;19921;-76
2022/02/13 03:30:42;;;;;;;;;;;;;;;;;;5015099;28;19949;-78
2022/02/13 03:33:08;;;;;;;;;;;;;;;;;;5014240;28;19972;-78
2022/02/13 03:35:33;;;;;;;;;;;;;;;;;;5014923;28;20015;-78
2022/02/13 03:37:58;;;;;;;;;;;;;;;;;;5013214;28;19967;-78
2022/02/13 03:40:24;;;;;;;;;;;;;;;;;;5013521;28;20419;-78
2022/02/13 03:42:49;;;;;;;;;;;;;;;;;;5013287;28;19936;-75
2022/02/13 03:45:14;;;;;;;;;;;;;;;;;;5013434;28;19921;-76
2022/02/13 03:47:40;;;;;;;;;;;;;;;;;;5013860;28;19930;-76
2022/02/13 03:50:05;;;;;;;;;;;;;;;;;;5013725;28;20014;-76
2022/02/13 03:52:31;;;;;;;;;;;;;;;;;;5012797;28;19917;-75
2022/02/13 03:54:56;;;;;;;;;;;;;;;;;;5014725;28;19921;-75
2022/02/13 03:57:21;;;;;;;;;;;;;;;;;;5014030;28;19929;-75
2022/02/13 03:59:47;;;;;;;;;;;;;;;;;;5014695;28;19924;-76
2022/02/13 04:02:12;;;;;;;;;;;;;;;;;;5013474;28;20294;-75
2022/02/13 04:04:37;;;;;;;;;;;;;;;;;;5013250;28;19967;-75
2022/02/13 04:07:03;;;;;;;;;;;;;;;;;;5010909;28;19925;-75
2022/02/13 04:09:28;;;;;;;;;;;;;;;;;;5014370;28;20377;-76
2022/02/13 04:11:53;;;;;;;;;;;;;;;;;;5010465;28;19929;-75
2022/02/13 04:14:18;;;;;;;;;;;;;;;;;;5013811;28;19940;-75
2022/02/13 04:16:44;;;;;;;;;;;;;;;;;;5013778;28;20023;-75
2022/02/13 04:19:09;;;;;;;;;;;;;;;;;;5014403;28;19941;-75
2022/02/13 04:21:34;;;;;;;;;;;;;;;;;;5013791;28;19957;-74
2022/02/13 04:23:59;;;;;;;;;;;;;;;;;;5014166;28;19967;-75
2022/02/13 04:26:25;;;;;;;;;;;;;;;;;;5012967;28;20293;-75
2022/02/13 04:28:50;;;;;;;;;;;;;;;;;;5013773;28;19967;-75
2022/02/13 04:31:15;;;;;;;;;;;;;;;;;;5013989;28;20012;-76
2022/02/13 04:33:41;;;;;;;;;;;;;;;;;;5013519;28;20439;-75
2022/02/13 04:36:06;;;;;;;;;;;;;;;;;;5014033;28;19925;-76
2022/02/13 04:38:32;;;;;;;;;;;;;;;;;;5015698;28;19922;-75
2022/02/13 04:40:57;;;;;;;;;;;;;;;;;;5013769;28;19921;-75
2022/02/13 04:43:22;;;;;;;;;;;;;;;;;;5013482;28;19924;-75
2022/02/13 04:45:48;;;;;;;;;;;;;;;;;;5013054;28;19961;-75
2022/02/13 04:48:13;;;;;;;;;;;;;;;;;;5013361;28;19936;-76
2022/02/13 04:50:38;;;;;;;;;;;;;;;;;;5013663;28;20277;-75
2022/02/13 04:53:03;;;;;;;;;;;;;;;;;;5013108;28;19975;-75
2022/02/13 04:55:29;;;;;;;;;;;;;;;;;;5013875;28;20357;-75
2022/02/13 04:57:54;;;;;;;;;;;;;;;;;;5013095;28;19917;-76
2022/02/13 05:00:20;;;;;;;;;;;;;;;;;;5013576;28;19968;-76
2022/02/13 05:02:45;;;;;;;;;;;;;;;;;;5012903;28;20286;-76
2022/02/13 05:05:11;;;;;;;;;;;;;;;;;;5013798;28;20366;-76
2022/02/13 05:07:36;;;;;;;;;;;;;;;;;;5011798;28;19967;-76
2022/02/13 05:10:02;;;;;;;;;;;;;;;;;;5013955;28;20375;-76
2022/02/13 05:12:27;;;;;;;;;;;;;;;;;;5011891;28;19921;-75
2022/02/13 05:14:53;;;;;;;;;;;;;;;;;;5012386;28;20336;-75
2022/02/13 05:17:18;;;;;;;;;;;;;;;;;;5012547;28;19918;-75
2022/02/13 05:19:43;;;;;;;;;;;;;;;;;;5013488;28;19921;-75
2022/02/13 05:22:09;;;;;;;;;;;;;;;;;;5013038;28;20374;-75
2022/02/13 05:24:37;;;;;;;;;;;;;;;;;;5013590;28;19929;-75
2022/02/13 05:27:04;;;;;;;;;;;;;;;;;;5012784;28;20374;-76
2022/02/13 05:29:29;;;;;;;;;;;;;;;;;;5012006;28;19922;-75
2022/02/13 05:31:55;;;;;;;;;;;;;;;;;;5011655;28;19972;-75
2022/02/13 05:34:20;;;;;;;;;;;;;;;;;;5013229;28;19920;-76
2022/02/13 05:36:45;;;;;;;;;;;;;;;;;;5012203;28;20373;-76
2022/02/13 05:39:11;;;;;;;;;;;;;;;;;;5014742;28;19917;-75
2022/02/13 05:41:36;;;;;;;;;;;;;;;;;;5016468;28;19921;-75
2022/02/13 05:44:02;;;;;;;;;;;;;;;;;;5016826;28;19944;-75
2022/02/13 05:46:29;;;;;;;;;;;;;;;;;;5015914;28;19964;-75
2022/02/13 05:48:55;;;;;;;;;;;;;;;;;;5016376;28;19917;-76
2022/02/13 05:51:20;;;;;;;;;;;;;;;;;;5016724;28;20004;-76
2022/02/13 05:53:45;;;;;;;;;;;;;;;;;;5014004;28;20348;-75
2022/02/13 05:56:10;;;;;;;;;;;;;;;;;;5015276;28;19932;-76
2022/02/13 05:58:39;;;;;;;;;;;;;;;;;;5016729;28;19921;-75
2022/02/13 06:01:05;;;;;;;;;;;;;;;;;;5016524;28;19921;-75
2022/02/13 06:03:30;;;;;;;;;;;;;;;;;;5016172;28;20334;-76
2022/02/13 06:05:55;;;;;;;;;;;;;;;;;;5016677;28;20008;-75
2022/02/13 06:08:21;;;;;;;;;;;;;;;;;;5015789;28;20333;-75
2022/02/13 06:10:46;;;;;;;;;;;;;;;;;;5016294;28;20267;-75
2022/02/13 06:13:11;;;;;;;;;;;;;;;;;;5015747;28;19945;-76
2022/02/13 06:15:37;;;;;;;;;;;;;;;;;;5016626;28;19948;-75
2022/02/13 06:18:02;;;;;;;;;;;;;;;;;;5014957;28;19957;-75
2022/02/13 06:20:28;;;;;;;;;;;;;;;;;;5015074;28;19968;-75
2022/02/13 06:22:53;;;;;;;;;;;;;;;;;;5016136;28;19922;-75
2022/02/13 06:25:18;;;;;;;;;;;;;;;;;;5016220;28;19919;-75
2022/02/13 06:27:43;;;;;;;;;;;;;;;;;;5016136;28;19921;-75
2022/02/13 06:30:09;;;;;;;;;;;;;;;;;;5015873;28;20013;-75
2022/02/13 06:32:34;;;;;;;;;;;;;;;;;;5014780;28;19968;-78
2022/02/13 06:34:59;;;;;;;;;;;;;;;;;;5016081;28;19922;-77
2022/02/13 06:37:25;;;;;;;;;;;;;;;;;;5015874;28;20106;-78
2022/02/13 06:39:50;;;;;;;;;;;;;;;;;;5015721;28;19921;-78
2022/02/13 06:42:15;;;;;;;;;;;;;;;;;;5015227;28;19925;-77
2022/02/13 06:44:41;;;;;;;;;;;;;;;;;;5016110;28;19929;-75
2022/02/13 06:47:06;;;;;;;;;;;;;;;;;;5015411;28;19914;-75
2022/02/13 06:49:31;;;;;;;;;;;;;;;;;;5014622;28;19922;-74
2022/02/13 06:51:58;;;;;;;;;;;;;;;;;;5015139;28;19949;-75
2022/02/13 06:54:23;;;;;;;;;;;;;;;;;;5014572;28;19944;-74
2022/02/13 06:56:48;;;;;;;;;;;;;;;;;;5015249;28;19917;-74
2022/02/13 06:59:14;;;;;;;;;;;;;;;;;;5014351;28;19928;-75
2022/02/13 07:01:39;;;;;;;;;;;;;;;;;;5015077;28;19928;-76
2022/02/13 07:04:04;;;;;;;;;;;;;;;;;;5015408;28;19921;-75
2022/02/13 07:06:29;;;;;;;;;;;;;;;;;;5014215;28;19960;-75
2022/02/13 07:08:55;;;;;;;;;;;;;;;;;;5015108;28;19925;-75
2022/02/13 07:11:20;;;;;;;;;;;;;;;;;;5015065;28;19961;-75
2022/02/13 07:13:45;;;;;;;;;;;;;;;;;;5015019;28;19921;-78
2022/02/13 07:16:11;;;;;;;;;;;;;;;;;;5015841;28;19917;-75
2022/02/13 07:18:36;;;;;;;;;;;;;;;;;;5014712;28;19925;-74
2022/02/13 07:21:01;;;;;;;;;;;;;;;;;;5014687;28;19928;-75
2022/02/13 07:23:27;;;;;;;;;;;;;;;;;;5015026;28;19921;-75
2022/02/13 07:25:53;;;;;;;;;;;;;;;;;;5013050;28;19918;-75
2022/02/13 07:31:02;;;;;;;;;;;;;;;;;;5009918;28;19968;-75
2022/02/13 07:33:27;;;;;;;;;;;;;;;;;;5014704;28;19921;-75
2022/02/13 07:35:52;;;;;;;;;;;;;;;;;;5015030;28;20342;-75
2022/02/13 07:38:18;;;;;;;;;;;;;;;;;;5021648;28;19921;-75
2022/02/13 07:40:43;;;;;;;;;;;;;;;;;;5014564;28;19922;-75
2022/02/13 07:43:08;;;;;;;;;;;;;;;;;;5013670;28;19922;-75
2022/02/13 07:45:33;;;;;;;;;;;;;;;;;;5014736;28;19921;-75
2022/02/13 07:47:59;;;;;;;;;;;;;;;;;;5013133;28;19925;-74
2022/02/13 07:50:24;;;;;;;;;;;;;;;;;;5014620;28;19929;-74
2022/02/13 07:52:50;;;;;;;;;;;;;;;;;;5014356;28;19991;-74
2022/02/13 07:55:15;;;;;;;;;;;;;;;;;;5014411;28;20023;-75
2022/02/13 07:57:42;;;;;;;;;;;;;;;;;;5014404;28;19929;-75
2022/02/13 08:00:09;;;;;;;;;;;;;;;;;;5012727;28;19944;-75
2022/02/13 08:02:36;;;;;;;;;;;;;;;;;;5005133;28;19929;-78
2022/02/13 08:05:01;;;;;;;;;;;;;;;;;;5014510;28;19917;-78
2022/02/13 08:07:26;;;;;;;;;;;;;;;;;;5012610;28;19921;-78
2022/02/13 08:09:52;;;;;;;;;;;;;;;;;;5014281;28;19922;-78
2022/02/13 08:12:17;;;;;;;;;;;;;;;;;;5013654;28;19972;-78
2022/02/13 08:14:42;;;;;;;;;;;;;;;;;;5014368;28;20382;-78
2022/02/13 08:17:07;;;;;;;;;;;;;;;;;;5014073;28;19964;-78
2022/02/13 08:19:36;;;;;;;;;;;;;;;;;;5013643;28;19918;-77
2022/02/13 08:22:03;;;;;;;;;;;;;;;;;;5014043;28;19927;-78
2022/02/13 08:24:28;;;;;;;;;;;;;;;;;;5013564;28;20378;-75
2022/02/13 08:26:53;;;;;;;;;;;;;;;;;;5013732;28;19929;-76
2022/02/13 08:29:18;;;;;;;;;;;;;;;;;;5012425;28;20013;-77
2022/02/13 08:31:44;;;;;;;;;;;;;;;;;;5011452;28;19921;-77
2022/02/13 08:34:09;;;;;;;;;;;;;;;;;;5013160;28;19918;-75
2022/02/13 08:36:34;;;;;;;;;;;;;;;;;;5013938;28;19921;-77
2022/02/13 08:39:00;;;;;;;;;;;;;;;;;;5013679;28;19944;-77
2022/02/13 08:41:25;;;;;;;;;;;;;;;;;;5012674;28;19921;-77
2022/02/13 08:43:50;;;;;;;;;;;;;;;;;;5013592;28;19924;-77
2022/02/13 08:46:16;;;;;;;;;;;;;;;;;;5013568;28;19922;-77
2022/02/13 08:48:43;;;;;;;;;;;;;;;;;;5013637;28;19918;-77
2022/02/13 08:51:08;;;;;;;;;;;;;;;;;;5011668;28;19979;-77
2022/02/13 08:53:33;;;;;;;;;;;;;;;;;;5013443;28;20378;-76
2022/02/13 08:55:59;;;;;;;;;;;;;;;;;;5013635;28;19921;-77
2022/02/13 08:58:24;;;;;;;;;;;;;;;;;;5013158;28;19918;-76
2022/02/13 09:00:50;;;;;;;;;;;;;;;;;;5012035;28;19921;-79
2022/02/13 09:03:15;;;;;;;;;;;;;;;;;;5012817;28;20306;-79
2022/02/13 09:05:41;;;;;;;;;;;;;;;;;;5013384;28;20015;-80
2022/02/13 09:08:08;;;;;;;;;;;;;;;;;;5011862;28;19921;-79
2022/02/13 09:10:34;;;;;;;;;;;;;;;;;;5012443;28;19925;-79
2022/02/13 09:12:59;;;;;;;;;;;;;;;;;;5012799;28;19925;-77
2022/02/13 09:15:25;;;;;;;;;;;;;;;;;;5016677;28;19969;-76
2022/02/13 09:17:50;;;;;;;;;;;;;;;;;;5017253;28;19921;-77
2022/02/13 09:20:16;;;;;;;;;;;;;;;;;;5016997;28;19932;-76
2022/02/13 09:22:42;;;;;;;;;;;;;;;;;;5016438;28;19929;-76
2022/02/13 09:25:07;;;;;;;;;;;;;;;;;;5017519;28;20071;-77
2022/02/13 09:27:32;;;;;;;;;;;;;;;;;;5017353;28;19917;-77
2022/02/13 09:29:58;;;;;;;;;;;;;;;;;;5017134;28;19930;-77
2022/02/13 09:32:23;;;;;;;;;;;;;;;;;;5017036;28;19925;-77
2022/02/13 09:34:49;;;;;;;;;;;;;;;;;;5017285;28;19921;-76
2022/02/13 09:37:14;;;;;;;;;;;;;;;;;;5019539;28;19948;-76
2022/02/13 09:39:40;;;;;;;;;;;;;;;;;;5032579;28;19986;-77
2022/02/13 09:42:06;;;;;;;;;;;;;;;;;;5015897;28;19926;-77
2022/02/13 09:44:31;;;;;;;;;;;;;;;;;;5016985;28;19921;-77
2022/02/13 09:46:56;;;;;;;;;;;;;;;;;;5015781;28;19914;-77
2022/02/13 09:49:22;;;;;;;;;;;;;;;;;;5015825;28;20295;-77
2022/02/13 09:51:48;;;;;;;;;;;;;;;;;;5018768;28;19918;-77
2022/02/13 09:54:13;;;;;;;;;;;;;;;;;;5015659;28;20317;-76
2022/02/13 09:56:38;;;;;;;;;;;;;;;;;;5014650;28;19925;-77
2022/02/13 09:59:04;;;;;;;;;;;;;;;;;;5016724;28;19921;-76
2022/02/13 10:01:36;;;;;;;;;;;;;;;;;;5016654;28;20361;-79
2022/02/13 10:04:01;;;;;;;;;;;;;;;;;;5016227;28;19925;-79
2022/02/13 10:06:27;;;;;;;;;;;;;;;;;;5015202;28;20011;-79
2022/02/13 10:08:53;;;;;;;;;;;;;;;;;;5016479;28;19917;-80
2022/02/13 10:11:34;;;;;;;;;;;;;;;;;;5016752;28;19918;-80
2022/02/13 10:14:00;;;;;;;;;;;;;;;;;;5015499;28;19921;-79
2022/02/13 10:16:30;;;;;;;;;;;;;;;;;;5013635;28;20290;-79
2022/02/13 10:19:19;;;;;;;;;;;;;;;;;;5005052;28;19925;-79
2022/02/13 10:21:55;;;;;;;;;;;;;;;;;;5013596;28;19924;-79
2022/02/13 10:24:21;;;;;;;;;;;;;;;;;;5011836;28;20297;-78
2022/02/13 10:26:48;;;;;;;;;;;;;;;;;;5010872;28;20052;-79
2022/02/13 10:29:14;;;;;;;;;;;;;;;;;;5012459;28;19930;-79
2022/02/13 10:31:40;;;;;;;;;;;;;;;;;;5012571;28;19929;-79
2022/02/13 10:34:05;;;;;;;;;;;;;;;;;;5011500;28;19987;-80
2022/02/13 10:36:38;;;;;;;;;;;;;;;;;;5010485;28;20488;-79
2022/02/13 10:39:03;;;;;;;;;;;;;;;;;;5011075;28;19925;-79
2022/02/13 10:41:28;;;;;;;;;;;;;;;;;;5011248;28;20271;-78
2022/02/13 10:44:05;;;;;;;;;;;;;;;;;;5012338;28;19921;-79
2022/02/13 10:46:35;;;;;;;;;;;;;;;;;;5011230;28;19944;-77
2022/02/13 10:49:01;;;;;;;;;;;;;;;;;;5010787;28;19921;-78
2022/02/13 10:51:26;;;;;;;;;;;;;;;;;;5011633;28;19948;-79
2022/02/13 10:53:52;;;;;;;;;;;;;;;;;;5011317;28;19928;-79
2022/02/13 10:56:18;;;;;;;;;;;;;;;;;;5011100;28;19921;-79
2022/02/13 10:58:43;;;;;;;;;;;;;;;;;;5007763;28;19925;-79
2022/02/13 11:01:09;;;;;;;;;;;;;;;;;;5010951;28;19928;-79
2022/02/13 11:03:35;;;;;;;;;;;;;;;;;;5013173;28;20294;-79
2022/02/13 11:06:05;;;;;;;;;;;;;;;;;;5011177;28;19918;-79
2022/02/13 11:08:34;;;;;;;;;;;;;;;;;;5012413;28;19928;-78
2022/02/13 11:11:00;;;;;;;;;;;;;;;;;;5010227;28;19957;-79
2022/02/13 11:13:28;;;;;;;;;;;;;;;;;;5012327;28;19964;-79
2022/02/13 11:15:53;;;;;;;;;;;;;;;;;;5011098;28;19932;-79
2022/02/13 11:18:21;;;;;;;;;;;;;;;;;;5010812;28;20012;-79
2022/02/13 11:20:47;;;;;;;;;;;;;;;;;;5011094;28;19960;-78
2022/02/13 11:23:22;;;;;;;;;;;;;;;;;;5011026;28;19964;-79
2022/02/13 11:25:49;;;;;;;;;;;;;;;;;;5011316;28;19921;-79
2022/02/13 11:28:14;;;;;;;;;;;;;;;;;;5011027;28;19921;-79
2022/02/13 11:30:41;;;;;;;;;;;;;;;;;;5012292;28;20013;-80
2022/02/13 11:33:08;;;;;;;;;;;;;;;;;;5011745;28;19913;-79
2022/02/13 11:35:52;;;;;;;;;;;;;;;;;;5026800;28;19922;-79
2022/02/13 11:38:36;;;;;;;;;;;;;;;;;;5012247;28;19960;-79
2022/02/13 11:41:01;;;;;;;;;;;;;;;;;;5011799;28;19922;-79
2022/02/13 11:43:59;;;;;;;;;;;;;;;;;;5012476;28;19930;-79
2022/02/13 11:46:27;;;;;;;;;;;;;;;;;;4991613;28;19955;-79
2022/02/13 11:48:59;;;;;;;;;;;;;;;;;;5011442;28;19933;-79
2022/02/13 11:51:57;;;;;;;;;;;;;;;;;;4997078;28;19928;-79
2022/02/13 11:54:37;;;;;;;;;;;;;;;;;;4986068;28;20012;-79
2022/02/13 11:57:15;;;;;;;;;;;;;;;;;;5012075;28;19929;-79
2022/02/13 11:59:52;;;;;;;;;;;;;;;;;;5002860;28;19921;-79
2022/02/13 12:02:30;;;;;;;;;;;;;;;;;;5010988;28;19925;-79
2022/02/13 12:05:07;;;;;;;;;;;;;;;;;;5011214;28;19921;-79
2022/02/13 12:07:58;;;;;;;;;;;;;;;;;;5010034;28;19917;-79
2022/02/13 12:10:26;;;;;;;;;;;;;;;;;;5003718;28;19929;-79
2022/02/13 12:12:52;;;;;;;;;;;;;;;;;;5010603;28;20012;-79
2022/02/13 12:15:17;;;;;;;;;;;;;;;;;;5009939;28;20008;-79
2022/02/13 12:17:43;;;;;;;;;;;;;;;;;;5011529;28;20417;-79
2022/02/13 12:20:12;;;;;;;;;;;;;;;;;;5011140;28;19921;-79
2022/02/13 12:22:38;;;;;;;;;;;;;;;;;;5009313;28;20889;-79
2022/02/13 12:25:10;;;;;;;;;;;;;;;;;;5011104;28;20016;-79
2022/02/13 12:27:35;;;;;;;;;;;;;;;;;;5000144;28;20374;-79
2022/02/13 12:30:03;;;;;;;;;;;;;;;;;;5010712;28;19922;-79
2022/02/13 12:32:29;;;;;;;;;;;;;;;;;;5010106;28;20286;-80
2022/02/13 12:34:56;;;;;;;;;;;;;;;;;;5009101;28;19922;-79
2022/02/13 12:37:48;;;;;;;;;;;;;;;;;;5010077;28;19921;-80
2022/02/13 12:40:19;;;;;;;;;;;;;;;;;;5006608;28;19921;-79
2022/02/13 12:42:45;;;;;;;;;;;;;;;;;;5009810;28;19975;-79
2022/02/13 12:45:11;;;;;;;;;;;;;;;;;;5008113;28;19922;-80
2022/02/13 12:47:38;;;;;;;;;;;;;;;;;;5008260;28;19983;-80
2022/02/13 12:50:05;;;;;;;;;;;;;;;;;;5009213;28;19929;-79
2022/02/13 12:52:31;;;;;;;;;;;;;;;;;;5010713;28;19918;-79
2022/02/13 12:54:58;;;;;;;;;;;;;;;;;;5009051;28;19921;-80
2022/02/13 12:57:23;;;;;;;;;;;;;;;;;;5009856;28;19921;-80
2022/02/13 12:59:48;;;;;;;;;;;;;;;;;;5010058;28;19925;-81
2022/02/13 13:02:18;;;;;;;;;;;;;;;;;;5009143;28;19921;-79
2022/02/13 13:04:43;;;;;;;;;;;;;;;;;;5009616;28;19929;-80
2022/02/13 13:07:18;;;;;;;;;;;;;;;;;;5009518;28;19918;-80
2022/02/13 13:09:44;;;;;;;;;;;;;;;;;;5008117;28;19928;-80
2022/02/13 13:12:10;;;;;;;;;;;;;;;;;;5009529;28;20340;-79
2022/02/13 13:14:36;;;;;;;;;;;;;;;;;;5009393;28;19933;-80
2022/02/13 13:17:05;;;;;;;;;;;;;;;;;;5009582;28;19917;-80
2022/02/13 13:19:32;;;;;;;;;;;;;;;;;;5010509;28;19929;-80
2022/02/13 13:21:57;;;;;;;;;;;;;;;;;;5010063;28;19939;-81
2022/02/13 13:24:23;;;;;;;;;;;;;;;;;;5010445;28;20422;-81
2022/02/13 13:26:48;;;;;;;;;;;;;;;;;;5010779;28;19975;-78
2022/02/13 13:29:23;;;;;;;;;;;;;;;;;;5010339;28;20378;-82
2022/02/13 13:31:54;;;;;;;;;;;;;;;;;;5011052;28;20382;-81
2022/02/13 13:34:20;;;;;;;;;;;;;;;;;;5010804;28;19944;-81
2022/02/13 13:36:45;;;;;;;;;;;;;;;;;;5009724;28;19987;-80
2022/02/13 13:39:22;;;;;;;;;;;;;;;;;;5016995;28;19948;-81
2022/02/13 13:41:48;;;;;;;;;;;;;;;;;;4994012;28;19976;-82
2022/02/13 13:44:18;;;;;;;;;;;;;;;;;;5008959;28;19953;-82
2022/02/13 13:46:43;;;;;;;;;;;;;;;;;;5008598;28;19922;-81
2022/02/13 13:49:09;;;;;;;;;;;;;;;;;;5009570;28;19917;-81
2022/02/13 13:51:34;;;;;;;;;;;;;;;;;;5009651;28;20345;-81
2022/02/13 13:53:59;;;;;;;;;;;;;;;;;;5008670;28;19921;-81
2022/02/13 13:56:24;;;;;;;;;;;;;;;;;;5009380;28;20436;-81
2022/02/13 13:58:50;;;;;;;;;;;;;;;;;;5010812;28;19927;-81
2022/02/13 14:01:15;;;;;;;;;;;;;;;;;;5013310;28;20448;-81
2022/02/13 14:03:40;;;;;;;;;;;;;;;;;;5013239;28;19965;-80
2022/02/13 14:06:05;;;;;;;;;;;;;;;;;;5014065;28;19921;-82
2022/02/13 14:08:31;;;;;;;;;;;;;;;;;;5013148;28;19921;-81
2022/02/13 14:10:56;;;;;;;;;;;;;;;;;;5013314;28;20388;-81
2022/02/13 14:13:25;;;;;;;;;;;;;;;;;;5012157;28;20362;-82
2022/02/13 14:15:50;;;;;;;;;;;;;;;;;;5013605;28;20023;-80
2022/02/13 14:18:15;;;;;;;;;;;;;;;;;;5013190;28;20036;-80
2022/02/13 14:20:41;;;;;;;;;;;;;;;;;;5014047;28;20281;-81
2022/02/13 14:23:06;;;;;;;;;;;;;;;;;;5010028;28;19925;-81
2022/02/13 14:25:32;;;;;;;;;;;;;;;;;;5013421;28;19917;-81
2022/02/13 14:27:57;;;;;;;;;;;;;;;;;;5013023;28;20278;-81
2022/02/13 14:30:22;;;;;;;;;;;;;;;;;;5012684;28;19979;-81
2022/02/13 14:32:48;;;;;;;;;;;;;;;;;;5012218;28;19929;-81
2022/02/13 14:35:13;;;;;;;;;;;;;;;;;;5011948;28;19925;-80
2022/02/13 14:37:39;;;;;;;;;;;;;;;;;;5017168;28;19925;-81
2022/02/13 14:40:04;;;;;;;;;;;;;;;;;;5011521;28;19925;-82
2022/02/13 14:42:30;;;;;;;;;;;;;;;;;;5012767;28;19921;-81
2022/02/13 14:44:55;;;;;;;;;;;;;;;;;;5013599;28;19926;-80
2022/02/13 14:47:20;;;;;;;;;;;;;;;;;;5011617;28;19917;-81
2022/02/13 14:49:46;;;;;;;;;;;;;;;;;;5013100;28;20277;-81
2022/02/13 14:52:15;;;;;;;;;;;;;;;;;;5011877;28;19921;-81
2022/02/13 14:54:40;;;;;;;;;;;;;;;;;;5010906;28;19924;-81
2022/02/13 14:57:06;;;;;;;;;;;;;;;;;;5011965;28;19925;-81
2022/02/13 14:59:31;;;;;;;;;;;;;;;;;;5012804;28;19921;-81
2022/02/13 15:01:57;;;;;;;;;;;;;;;;;;5010644;28;19921;-82
2022/02/13 15:04:22;;;;;;;;;;;;;;;;;;5011443;28;19921;-82
2022/02/13 15:06:47;;;;;;;;;;;;;;;;;;5011681;28;19944;-81
2022/02/13 15:09:13;;;;;;;;;;;;;;;;;;5012493;28;19917;-81
2022/02/13 15:11:38;;;;;;;;;;;;;;;;;;5011481;28;19930;-81
2022/02/13 15:14:03;;;;;;;;;;;;;;;;;;5012596;28;19921;-81
2022/02/13 15:16:29;;;;;;;;;;;;;;;;;;5011994;28;19964;-81
2022/02/13 15:18:54;;;;;;;;;;;;;;;;;;5012238;28;20008;-81
2022/02/13 15:21:19;;;;;;;;;;;;;;;;;;5011567;28;19936;-81
2022/02/13 15:23:45;;;;;;;;;;;;;;;;;;5012704;28;19917;-81
2022/02/13 15:26:10;;;;;;;;;;;;;;;;;;5011735;28;19932;-82
2022/02/13 15:28:38;;;;;;;;;;;;;;;;;;5011764;28;19926;-81
2022/02/13 15:31:04;;;;;;;;;;;;;;;;;;5004325;28;19917;-80
2022/02/13 15:33:29;;;;;;;;;;;;;;;;;;5012081;28;20123;-81
2022/02/13 15:35:55;;;;;;;;;;;;;;;;;;5010712;28;19921;-81
2022/02/13 15:38:20;;;;;;;;;;;;;;;;;;5017356;28;19917;-81
2022/02/13 15:40:45;;;;;;;;;;;;;;;;;;5009609;28;19934;-81
2022/02/13 15:43:12;;;;;;;;;;;;;;;;;;5010039;28;19971;-80
2022/02/13 15:45:39;;;;;;;;;;;;;;;;;;5011034;28;20060;-81
2022/02/13 15:48:04;;;;;;;;;;;;;;;;;;5010478;28;19995;-80
2022/02/13 15:50:30;;;;;;;;;;;;;;;;;;5011755;28;19922;-78
2022/02/13 15:52:55;;;;;;;;;;;;;;;;;;5010955;28;20259;-82
2022/02/13 15:55:20;;;;;;;;;;;;;;;;;;5010496;28;19921;-81
2022/02/13 15:57:46;;;;;;;;;;;;;;;;;;5011397;28;19960;-81
2022/02/13 16:00:11;;;;;;;;;;;;;;;;;;5011659;28;19921;-81
2022/02/13 16:02:37;;;;;;;;;;;;;;;;;;5009574;28;19937;-78
2022/02/13 16:05:02;;;;;;;;;;;;;;;;;;5011479;28;19922;-79
2022/02/13 16:07:27;;;;;;;;;;;;;;;;;;5006134;28;19921;-80
2022/02/13 16:09:53;;;;;;;;;;;;;;;;;;5011263;28;20015;-80
2022/02/13 16:12:18;;;;;;;;;;;;;;;;;;5010816;28;20008;-80
2022/02/13 16:14:45;;;;;;;;;;;;;;;;;;5014044;28;20375;-80
2022/02/13 16:17:10;;;;;;;;;;;;;;;;;;5009024;28;19928;-80
2022/02/13 16:19:35;;;;;;;;;;;;;;;;;;5009761;28;19925;-80
2022/02/13 16:22:01;;;;;;;;;;;;;;;;;;5010068;28;19947;-80
2022/02/13 16:24:26;;;;;;;;;;;;;;;;;;5011182;28;19960;-80
2022/02/13 16:26:52;;;;;;;;;;;;;;;;;;5010301;28;20024;-80
2022/02/13 16:29:26;;;;;;;;;;;;;;;;;;5010057;28;19921;-80
2022/02/13 16:31:51;;;;;;;;;;;;;;;;;;5010824;28;20011;-78
2022/02/13 16:34:17;;;;;;;;;;;;;;;;;;5010380;28;19969;-80
2022/02/13 16:36:42;;;;;;;;;;;;;;;;;;5008877;28;19921;-80
2022/02/13 16:39:09;;;;;;;;;;;;;;;;;;5010812;28;20023;-80
2022/02/13 16:41:34;;;;;;;;;;;;;;;;;;5007790;28;19969;-80
2022/02/13 16:44:00;;;;;;;;;;;;;;;;;;5010294;28;19957;-80